Time;durP1;ratioP1;P1;durP2;ratioP2;P2;SDS_P1;SDS_P2;PMS_P1;PMS_P2;Temp;Humidity;BMP_temperature;BMP_pressure;BME280_temperature;BME280_humidity;BME280_pressure;Samples;Min_cycle;Max_cycle;Signal;HPM_P1;HPM_P2
2024/01/27 00:01:12;;;;;;;56.47;22.48;;;;;;;9.72;82.78;101629.59;5072314;28;20257;-79
2024/01/27 00:03:37;;;;;;;60.57;23.47;;;;;;;9.73;83.31;101626.97;5072689;28;20035;-76
2024/01/27 00:06:03;;;;;;;61.20;23.17;;;;;;;9.73;83.10;101616.44;5072834;28;20634;-76
2024/01/27 00:08:28;;;;;;;58.97;22.73;;;;;;;9.73;82.99;101603.28;5072382;28;20020;-84
2024/01/27 00:10:53;;;;;;;55.33;23.17;;;;;;;9.73;83.23;101605.94;5072541;28;20029;-82
2024/01/27 00:13:19;;;;;;;58.97;24.40;;;;;;;9.74;82.78;101606.84;5072762;28;20427;-75
2024/01/27 00:15:44;;;;;;;59.20;22.80;;;;;;;9.72;83.28;101604.16;5072592;28;20401;-76
2024/01/27 00:18:10;;;;;;;68.43;25.43;;;;;;;9.71;83.34;101602.38;5072333;28;20055;-80
2024/01/27 00:20:35;;;;;;;66.10;25.37;;;;;;;9.72;83.16;101605.91;5076309;28;20158;-77
2024/01/27 00:23:01;;;;;;;62.58;24.63;;;;;;;9.74;82.81;101599.81;5092996;28;20035;-77
2024/01/27 00:25:26;;;;;;;61.83;24.93;;;;;;;9.74;82.71;101596.31;5091086;28;20115;-86
2024/01/27 00:27:51;;;;;;;62.17;25.00;;;;;;;9.73;83.20;101599.78;5078834;28;20415;-86
2024/01/27 00:30:17;;;;;;;82.97;30.47;;;;;;;9.74;83.01;101591.06;5072579;28;20080;-82
2024/01/27 00:32:42;;;;;;;70.57;26.30;;;;;;;9.73;83.17;101595.41;5072378;28;20523;-77
2024/01/27 00:35:09;;;;;;;63.70;24.50;;;;;;;9.73;82.88;101589.28;5072590;28;20056;-76
2024/01/27 00:37:34;;;;;;;68.22;26.00;;;;;;;9.74;83.21;101591.91;5054215;28;20044;-84
2024/01/27 00:40:00;;;;;;;64.87;24.33;;;;;;;9.71;83.05;101598.88;5075580;28;20055;-77
2024/01/27 00:42:25;;;;;;;65.20;25.23;;;;;;;9.70;83.07;101605.00;5092353;28;20077;-77
2024/01/27 00:44:51;;;;;;;66.10;24.87;;;;;;;9.70;83.22;101600.59;5092014;28;20078;-77
2024/01/27 00:47:16;;;;;;;62.88;24.85;;;;;;;9.70;83.03;101600.59;5083480;28;20051;-79
2024/01/27 00:49:41;;;;;;;68.43;24.83;;;;;;;9.69;83.05;101597.97;5072416;28;20109;-75
2024/01/27 00:52:07;;;;;;;68.00;25.73;;;;;;;9.67;83.39;101597.03;5072303;28;20044;-80
2024/01/27 00:54:32;;;;;;;70.20;27.07;;;;;;;9.69;82.92;101597.97;5072324;28;20035;-81
2024/01/27 00:56:58;;;;;;;67.07;25.83;;;;;;;9.68;83.01;101591.81;5071884;28;20020;-81
2024/01/27 00:59:23;;;;;;;67.40;25.83;;;;;;;9.68;83.01;101591.81;5071922;28;20027;-83
2024/01/27 01:01:49;;;;;;;65.57;25.17;;;;;;;9.69;83.49;101598.84;5071512;28;20306;-79
2024/01/27 01:04:14;;;;;;;65.22;24.80;;;;;;;9.70;82.79;101595.34;5053654;28;20050;-86
2024/01/27 01:06:40;;;;;;;67.20;25.33;;;;;;;9.72;83.14;101592.75;5071573;28;20492;-84
2024/01/27 01:09:06;;;;;;;66.57;25.60;;;;;;;9.70;82.74;101592.72;5071757;28;20072;-78
2024/01/27 01:11:31;;;;;;;78.97;26.80;;;;;;;9.70;82.99;101590.09;5071974;28;20544;-77
2024/01/27 01:13:57;;;;;;;68.50;26.20;;;;;;;9.68;82.80;101586.53;5071651;28;20024;-77
2024/01/27 01:16:22;;;;;;;70.07;27.40;;;;;;;9.65;82.65;101588.25;5071104;28;20103;-79
2024/01/27 01:18:48;;;;;;;64.20;25.47;;;;;;;9.61;83.14;101587.28;5071263;28;20032;-79
2024/01/27 01:21:13;;;;;;;67.07;26.73;;;;;;;9.58;83.35;101595.09;5080343;28;20346;-87
2024/01/27 01:23:38;;;;;;;65.77;26.87;;;;;;;9.55;83.53;101595.91;5090835;28;20020;-80
2024/01/27 01:26:04;;;;;;;67.53;26.20;;;;;;;9.54;83.52;101598.53;5080800;28;20543;-82
2024/01/27 01:28:31;;;;;;;69.15;26.70;;;;;;;9.54;83.15;101598.53;5070999;28;20060;-78
2024/01/27 01:30:57;;;;;;;70.22;26.23;;;;;;;9.55;83.54;101600.31;5071180;28;20032;-79
2024/01/27 01:33:22;;;;;;;65.10;24.80;;;;;;;9.56;83.66;101608.19;5071316;28;20484;-77
2024/01/27 01:35:47;;;;;;;71.83;24.40;;;;;;;9.56;83.40;101608.19;5071257;28;20028;-87
2024/01/27 01:38:13;;;;;;;67.47;23.10;;;;;;;9.56;83.14;101605.56;5071332;28;20094;-77
2024/01/27 01:40:38;;;;;;;71.20;22.57;;;;;;;9.57;83.40;101609.09;5079773;28;20032;-78
2024/01/27 01:43:09;;;;;;;72.50;23.38;;;;;;;9.57;83.46;101609.97;5091621;28;20508;-80
2024/01/27 01:45:35;;;;;;;69.00;21.93;;;;;;;9.58;83.25;101610.88;5091314;28;20039;-77
2024/01/27 01:48:01;;;;;;;68.70;21.77;;;;;;;9.57;83.15;101602.09;5078986;28;20025;-75
2024/01/27 01:50:26;;;;;;;69.13;22.10;;;;;;;9.57;83.12;101604.72;5072043;28;20447;-81
2024/01/27 01:52:53;;;;;;;73.95;23.48;;;;;;;9.58;83.14;101608.25;5072346;28;20024;-85
2024/01/27 01:55:18;;;;;;;72.33;22.47;;;;;;;9.57;83.15;101609.09;5053995;28;20036;-77
2024/01/27 01:57:44;;;;;;;73.13;23.55;;;;;;;9.57;83.55;101603.84;5071928;28;20381;-75
2024/01/27 02:00:10;;;;;;;65.65;22.85;;;;;;;9.58;83.10;101600.38;5071016;28;20032;-75
2024/01/27 02:02:36;;;;;;;71.97;24.80;;;;;;;9.56;83.36;101592.44;5071297;28;20033;-75
2024/01/27 02:05:01;;;;;;;73.77;24.37;;;;;;;9.52;82.92;101587.06;5070928;28;20021;-77
2024/01/27 02:07:27;;;;;;;68.53;23.20;;;;;;;9.50;83.19;101587.03;5070307;28;20266;-77
2024/01/27 02:09:52;;;;;;;66.70;23.13;;;;;;;9.47;83.63;101593.09;5070811;28;20039;-78
2024/01/27 02:12:18;;;;;;;66.30;21.90;;;;;;;9.46;83.05;101586.06;5070399;28;20638;-79
2024/01/27 02:14:43;;;;;;;65.13;21.73;;;;;;;9.45;83.24;101584.31;5070307;28;20033;-82
2024/01/27 02:17:08;;;;;;;68.20;22.10;;;;;;;9.45;83.14;101588.69;5069885;28;20024;-75
2024/01/27 02:19:34;;;;;;;69.13;21.97;;;;;;;9.43;83.34;101586.00;5070165;28;20028;-76
2024/01/27 02:21:59;;;;;;;64.63;21.77;;;;;;;9.43;83.32;101580.75;5085711;28;20106;-80
2024/01/27 02:24:25;;;;;;;63.63;20.53;;;;;;;9.43;83.55;101578.13;5088666;28;20023;-83
2024/01/27 02:26:50;;;;;;;61.50;20.60;;;;;;;9.43;83.19;101575.50;5074447;28;20364;-84
2024/01/27 02:29:16;;;;;;;66.07;20.60;;;;;;;9.43;83.42;101572.88;5069661;28;20489;-83
2024/01/27 02:31:41;;;;;;;67.47;20.27;;;;;;;9.42;83.51;101572.84;5069785;28;20052;-84
2024/01/27 02:34:06;;;;;;;58.70;18.20;;;;;;;9.43;83.16;101558.84;5069695;28;20024;-77
2024/01/27 02:36:32;;;;;;;55.63;17.45;;;;;;;9.40;83.45;101554.41;5069885;28;20029;-76
2024/01/27 02:38:57;;;;;;;60.00;17.13;;;;;;;9.41;83.26;101544.78;5069924;28;20165;-77
2024/01/27 02:41:23;;;;;;;51.10;16.93;;;;;;;9.40;83.49;101543.88;5084784;28;20028;-82
2024/01/27 02:43:48;;;;;;;55.20;16.67;;;;;;;9.39;83.18;101542.13;5072107;28;20125;-80
2024/01/27 02:46:15;;;;;;;58.70;18.40;;;;;;;9.39;83.63;101544.75;5070029;28;20024;-83
2024/01/27 02:48:44;;;;;;;53.40;17.00;;;;;;;9.40;83.54;101543.88;5069965;28;20036;-77
2024/01/27 02:51:09;;;;;;;61.55;18.00;;;;;;;9.42;83.83;101536.03;5051935;28;20557;-80
2024/01/27 02:53:35;;;;;;;52.10;17.23;;;;;;;9.40;83.33;101538.63;5070050;28;20032;-81
2024/01/27 02:56:01;;;;;;;58.20;18.33;;;;;;;9.39;83.46;101542.13;5069543;28;20024;-86
2024/01/27 02:58:26;;;;;;;58.60;17.70;;;;;;;9.37;83.35;101549.09;5069520;28;20032;-85
2024/01/27 03:00:51;;;;;;;57.70;17.57;;;;;;;9.37;83.33;101542.91;5069476;28;20037;-77
2024/01/27 03:03:17;;;;;;;73.67;17.80;;;;;;;9.34;83.45;101542.00;5051731;28;20286;-78
2024/01/27 03:05:42;;;;;;;56.87;17.53;;;;;;;9.30;83.65;101532.28;5069881;28;20021;-78
2024/01/27 03:08:07;;;;;;;58.87;17.40;;;;;;;9.27;83.71;101519.06;5069196;28;20071;-81
2024/01/27 03:10:33;;;;;;;65.97;18.77;;;;;;;9.24;83.56;101521.66;5069550;28;20029;-76
2024/01/27 03:12:58;;;;;;;55.50;16.70;;;;;;;9.22;83.69;101523.34;5069802;28;20063;-82
2024/01/27 03:15:24;;;;;;;44.43;14.13;;;;;;;9.22;83.85;101527.72;5069503;28;20032;-76
2024/01/27 03:17:49;;;;;;;54.67;14.70;;;;;;;9.23;84.02;101529.47;5069239;28;20055;-79
2024/01/27 03:20:15;;;;;;;51.20;15.43;;;;;;;9.24;83.68;101515.47;5070024;28;20086;-77
2024/01/27 03:22:41;;;;;;;49.88;15.35;;;;;;;9.22;84.01;101522.44;5089369;28;20458;-78
2024/01/27 03:25:08;;;;;;;47.00;14.43;;;;;;;9.19;83.65;101524.16;5086295;28;20038;-79
2024/01/27 03:27:34;;;;;;;47.90;15.53;;;;;;;9.21;83.73;101520.69;5069512;28;20029;-84
2024/01/27 03:30:03;;;;;;;42.78;13.65;;;;;;;9.17;84.00;101515.34;5069424;28;20543;-78
2024/01/27 03:32:31;;;;;;;64.00;13.88;;;;;;;9.16;83.86;101518.84;5069770;28;20029;-84
2024/01/27 03:35:00;;;;;;;53.50;14.95;;;;;;;9.14;83.75;101520.56;5069309;28;20141;-77
2024/01/27 03:37:26;;;;;;;46.97;13.88;;;;;;;9.10;83.89;101518.72;5072706;28;20032;-78
2024/01/27 03:39:52;;;;;;;63.03;14.73;;;;;;;9.08;84.09;101520.41;5071688;28;20031;-80
2024/01/27 03:42:17;;;;;;;57.83;16.40;;;;;;;9.07;84.02;101516.03;5089372;28;20032;-79
2024/01/27 03:44:42;;;;;;;57.10;13.80;;;;;;;9.04;83.97;101511.56;5089275;28;20646;-77
2024/01/27 03:47:08;;;;;;;47.33;14.40;;;;;;;9.06;83.95;101524.75;5086786;28;20035;-84
2024/01/27 03:49:33;;;;;;;55.17;14.67;;;;;;;9.07;83.94;101526.53;5051330;28;20132;-82
2024/01/27 03:52:02;;;;;;;56.37;13.53;;;;;;;9.11;84.01;101527.47;5069066;28;20039;-80
2024/01/27 03:54:27;;;;;;;38.53;12.38;;;;;;;9.08;84.05;101530.03;5069542;28;20054;-79
2024/01/27 03:56:54;;;;;;;46.77;12.93;;;;;;;9.06;83.87;101524.75;5069121;28;20580;-82
2024/01/27 03:59:19;;;;;;;46.38;14.25;;;;;;;9.05;83.78;101517.72;5068648;28;20035;-79
2024/01/27 04:01:45;;;;;;;48.50;12.67;;;;;;;9.04;83.81;101518.56;5072692;28;20044;-80
2024/01/27 04:04:10;;;;;;;65.88;12.52;;;;;;;9.02;83.85;101515.00;5077568;28;20041;-77
2024/01/27 04:06:38;;;;;;;43.37;12.40;;;;;;;8.99;83.60;101509.69;5078838;28;20032;-78
2024/01/27 04:09:03;;;;;;;57.05;12.75;;;;;;;8.94;83.79;101506.06;5076513;28;20043;-83
2024/01/27 04:11:29;;;;;;;37.13;12.37;;;;;;;8.88;83.96;101505.09;5072847;28;20037;-77
2024/01/27 04:13:54;;;;;;;39.10;13.03;;;;;;;8.89;84.05;101509.50;5072530;28;20028;-77
2024/01/27 04:16:19;;;;;;;38.77;12.50;;;;;;;8.93;83.90;101499.03;5051406;28;20040;-80
2024/01/27 04:18:45;;;;;;;37.63;12.13;;;;;;;8.93;84.05;101499.03;5068615;28;20290;-85
2024/01/27 04:21:11;;;;;;;38.03;12.07;;;;;;;8.94;83.83;101501.72;5079273;28;20024;-82
2024/01/27 04:23:36;;;;;;;45.90;12.43;;;;;;;8.95;84.01;101502.59;5092621;28;20024;-78
2024/01/27 04:26:02;;;;;;;40.70;11.83;;;;;;;8.96;83.79;101489.50;5082198;28;20024;-83
2024/01/27 04:28:29;;;;;;;35.17;11.10;;;;;;;8.92;83.96;101492.03;5072178;28;20119;-80
2024/01/27 04:30:55;;;;;;;38.45;10.75;;;;;;;8.93;83.81;101491.16;5072572;28;20020;-85
2024/01/27 04:33:20;;;;;;;38.70;10.97;;;;;;;8.92;83.65;101498.16;5072644;28;20078;-78
2024/01/27 04:35:45;;;;;;;45.33;10.55;;;;;;;8.84;84.06;101498.00;5072489;28;20029;-77
2024/01/27 04:38:11;;;;;;;72.10;12.03;;;;;;;8.82;84.00;101496.16;5072300;28;20503;-87
2024/01/27 04:40:36;;;;;;;37.87;10.13;;;;;;;8.76;84.00;101484.69;5080596;28;20028;-87
2024/01/27 04:43:02;;;;;;;44.10;10.27;;;;;;;8.71;84.38;101488.03;5092480;28;20117;-76
2024/01/27 04:45:28;;;;;;;47.88;9.95;;;;;;;8.69;84.27;101490.66;5092405;28;20035;-78
2024/01/27 04:47:53;;;;;;;39.03;9.67;;;;;;;8.64;84.48;101494.88;5084625;28;20036;-81
2024/01/27 04:50:20;;;;;;;30.02;9.30;;;;;;;8.63;84.21;101495.72;5072264;28;20020;-86
2024/01/27 04:52:45;;;;;;;30.60;8.87;;;;;;;8.63;84.31;101489.63;5072159;28;20412;-77
2024/01/27 04:55:11;;;;;;;41.88;9.45;;;;;;;8.64;84.25;101492.25;5072097;28;20021;-79
2024/01/27 04:57:36;;;;;;;25.67;8.77;;;;;;;8.64;84.22;101487.00;5071820;28;20044;-78
2024/01/27 05:00:04;;;;;;;33.10;9.13;;;;;;;8.64;84.58;101484.38;5046620;28;20059;-84
2024/01/27 05:02:29;;;;;;;37.77;9.03;;;;;;;8.67;84.14;101480.94;5031696;28;20656;-79
2024/01/27 05:04:54;;;;;;;38.17;8.77;;;;;;;8.65;84.10;101480.03;5032100;28;20026;-86
2024/01/27 05:07:21;;;;;;;45.83;9.50;;;;;;;8.64;84.01;101475.63;5031862;28;20318;-76
2024/01/27 05:09:46;;;;;;;46.70;9.52;;;;;;;8.64;84.04;101470.38;5032075;28;20382;-83
2024/01/27 05:12:11;;;;;;;38.83;9.70;;;;;;;8.58;84.25;101481.63;5032037;28;20029;-83
2024/01/27 05:14:37;;;;;;;35.83;9.23;;;;;;;8.59;84.06;101484.28;5030589;28;20032;-78
2024/01/27 05:17:02;;;;;;;29.63;8.77;;;;;;;8.61;84.18;101479.06;5031655;28;20030;-83
2024/01/27 05:19:28;;;;;;;32.13;8.87;;;;;;;8.64;84.04;101486.13;5030600;28;20113;-78
2024/01/27 05:21:53;;;;;;;29.38;8.77;;;;;;;8.65;84.12;101477.41;5034702;28;20021;-81
2024/01/27 05:24:18;;;;;;;51.13;9.07;;;;;;;8.66;83.78;101479.19;5033900;28;20549;-84
2024/01/27 05:26:44;;;;;;;31.63;8.57;;;;;;;8.64;83.72;101475.63;5036606;28;20017;-77
2024/01/27 05:29:09;;;;;;;29.60;8.50;;;;;;;8.63;83.67;101489.63;5030991;28;20028;-76
2024/01/27 05:31:35;;;;;;;32.77;7.53;;;;;;;8.55;83.74;101482.41;5031093;28;20108;-79
2024/01/27 05:34:00;;;;;;;26.33;7.82;;;;;;;8.52;83.61;101482.34;5030288;28;20109;-79
2024/01/27 05:36:26;;;;;;;24.13;7.93;;;;;;;8.50;83.59;101478.81;5031546;28;20573;-77
2024/01/27 05:38:51;;;;;;;28.23;7.43;;;;;;;8.50;83.90;101478.81;5031295;28;20555;-76
2024/01/27 05:41:16;;;;;;;28.30;7.43;;;;;;;8.51;83.98;101471.81;5045091;28;20053;-78
2024/01/27 05:43:42;;;;;;;28.03;8.20;;;;;;;8.50;83.88;101484.06;5047981;28;20087;-77
2024/01/27 05:46:09;;;;;;;33.10;8.37;;;;;;;8.50;83.54;101481.44;5030915;28;20056;-80
2024/01/27 05:48:34;;;;;;;48.20;8.43;;;;;;;8.48;83.73;101483.09;5030975;28;20017;-78
2024/01/27 05:51:00;;;;;;;38.47;7.73;;;;;;;8.43;83.26;101479.47;5031151;28;20034;-80
2024/01/27 05:53:26;;;;;;;24.45;8.02;;;;;;;8.38;83.90;101478.47;5031317;28;20060;-81
2024/01/27 05:55:56;;;;;;;27.65;8.05;;;;;;;8.37;84.08;101479.34;5029800;28;20034;-77
2024/01/27 05:58:22;;;;;;;34.00;7.90;;;;;;;8.31;84.10;101478.31;5030956;28;20037;-77
2024/01/27 06:00:48;;;;;;;25.17;8.27;;;;;;;8.32;84.16;101485.38;5050310;28;20040;-87
2024/01/27 06:03:14;;;;;;;26.27;8.30;;;;;;;8.36;84.17;101485.44;5070734;28;20082;-84
2024/01/27 06:05:39;;;;;;;32.20;9.05;;;;;;;8.37;83.88;101481.97;5070738;28;20048;-80
2024/01/27 06:08:07;;;;;;;37.30;9.47;;;;;;;8.33;84.09;101468.75;5070815;28;20470;-81
2024/01/27 06:10:32;;;;;;;48.72;8.18;;;;;;;8.29;84.01;101479.13;5070689;28;20036;-81
2024/01/27 06:12:57;;;;;;;46.87;8.60;;;;;;;8.22;84.11;101475.47;5070714;28;20058;-81
2024/01/27 06:15:23;;;;;;;49.50;8.50;;;;;;;8.17;84.23;101477.97;5070555;28;20033;-78
2024/01/27 06:17:48;;;;;;;45.47;8.57;;;;;;;8.11;84.59;101475.19;5071520;28;20086;-79
2024/01/27 06:20:16;;;;;;;52.37;7.50;;;;;;;8.11;84.61;101484.81;5072231;28;20544;-77
2024/01/27 06:22:41;;;;;;;44.63;7.95;;;;;;;8.09;84.52;101476.03;5090788;28;20080;-79
2024/01/27 06:25:08;;;;;;;33.33;7.30;;;;;;;8.08;84.55;101479.47;5087155;28;20039;-87
2024/01/27 06:27:33;;;;;;;34.05;7.88;;;;;;;8.09;84.50;101481.28;5070375;28;20024;-86
2024/01/27 06:29:59;;;;;;;37.17;7.63;;;;;;;8.08;84.50;101474.22;5069776;28;20037;-76
2024/01/27 06:32:24;;;;;;;23.20;6.40;;;;;;;8.03;84.51;101472.38;5070402;28;20043;-78
2024/01/27 06:34:50;;;;;;;29.77;7.20;;;;;;;8.02;84.66;101473.22;5070224;28;20025;-78
2024/01/27 06:37:15;;;;;;;29.47;6.70;;;;;;;8.05;84.65;101475.91;5070214;28;20110;-77
2024/01/27 06:39:40;;;;;;;34.37;7.17;;;;;;;8.09;84.52;101470.78;5070422;28;20512;-78
2024/01/27 06:42:06;;;;;;;31.20;6.63;;;;;;;8.09;84.41;101466.41;5078293;28;20125;-76
2024/01/27 06:44:31;;;;;;;31.23;5.53;;;;;;;8.05;84.45;101465.41;5069134;28;20035;-81
2024/01/27 06:46:56;;;;;;;21.13;5.07;;;;;;;8.02;84.26;101469.72;5069973;28;20351;-83
2024/01/27 06:49:22;;;;;;;21.27;4.90;;;;;;;7.96;84.84;101474.81;5069844;28;20021;-78
2024/01/27 06:51:47;;;;;;;38.40;5.53;;;;;;;7.96;84.42;101480.06;5070168;28;20098;-82
2024/01/27 06:54:12;;;;;;;42.27;5.37;;;;;;;7.95;84.51;101489.66;5069911;28;20036;-86
2024/01/27 06:56:38;;;;;;;31.80;4.70;;;;;;;7.89;84.43;101487.75;5069874;28;20098;-79
2024/01/27 06:59:03;;;;;;;27.27;4.60;;;;;;;7.87;84.53;101496.44;5069436;28;20266;-84
2024/01/27 07:01:29;;;;;;;11.07;3.90;;;;;;;7.85;84.50;101493.75;5069495;28;20445;-84
2024/01/27 07:03:55;;;;;;;17.88;3.90;;;;;;;7.82;84.26;101491.06;5069666;28;20044;-84
2024/01/27 07:06:21;;;;;;;15.23;4.67;;;;;;;7.79;84.55;101488.34;5069792;28;20021;-77
2024/01/27 07:08:46;;;;;;;12.80;3.90;;;;;;;7.79;84.62;101485.72;5069449;28;20107;-77
2024/01/27 07:11:12;;;;;;;13.38;4.10;;;;;;;7.79;84.43;101492.69;5069811;28;20028;-85
2024/01/27 07:13:37;;;;;;;12.07;3.20;;;;;;;7.79;84.49;101497.94;5069882;28;20060;-80
2024/01/27 07:16:03;;;;;;;13.77;3.17;;;;;;;7.79;84.00;101495.31;5069625;28;20051;-78
2024/01/27 07:18:29;;;;;;;7.45;2.70;;;;;;;7.78;83.94;101501.41;5069531;28;20028;-77
2024/01/27 07:20:54;;;;;;;16.00;3.10;;;;;;;7.74;84.14;101493.47;5075615;28;20086;-84
2024/01/27 07:23:20;;;;;;;11.97;3.10;;;;;;;7.72;84.01;101496.91;5089493;28;20043;-77
2024/01/27 07:25:46;;;;;;;12.13;3.63;;;;;;;7.72;83.85;101497.78;5080813;28;20115;-77
2024/01/27 07:28:11;;;;;;;10.00;3.58;;;;;;;7.75;84.18;101503.09;5069758;28;20029;-86
2024/01/27 07:30:37;;;;;;;11.40;3.97;;;;;;;7.79;83.92;101500.56;5055376;28;20043;-80
2024/01/27 07:33:02;;;;;;;10.25;3.47;;;;;;;7.81;83.84;101496.25;5063604;28;20033;-78
2024/01/27 07:35:28;;;;;;;9.83;2.87;;;;;;;7.82;84.04;101503.25;5069685;28;20484;-78
2024/01/27 07:37:54;;;;;;;13.82;3.50;;;;;;;7.80;84.19;101494.47;5065795;28;20029;-79
2024/01/27 07:40:19;;;;;;;8.87;3.33;;;;;;;7.80;83.94;101494.47;5068406;28;20024;-87
2024/01/27 07:42:44;;;;;;;9.70;3.73;;;;;;;7.81;83.85;101496.25;5065152;28;20043;-81
2024/01/27 07:45:10;;;;;;;9.30;3.07;;;;;;;7.83;84.18;101502.41;5069334;28;20089;-84
2024/01/27 07:47:35;;;;;;;14.40;3.30;;;;;;;7.84;84.30;101506.84;5067346;28;20043;-78
2024/01/27 07:50:01;;;;;;;11.50;3.10;;;;;;;7.86;84.23;101507.78;5067095;28;20070;-79
2024/01/27 07:52:26;;;;;;;11.70;3.07;;;;;;;7.90;84.34;101507.00;5069521;28;20518;-80
2024/01/27 07:54:51;;;;;;;11.73;3.67;;;;;;;7.93;84.08;101503.56;5069473;28;20020;-76
2024/01/27 07:57:17;;;;;;;12.57;3.27;;;;;;;7.93;83.97;101501.84;5072691;28;20107;-79
2024/01/27 07:59:42;;;;;;;13.85;3.30;;;;;;;7.96;83.74;101499.28;5071879;28;20492;-77
2024/01/27 08:02:08;;;;;;;10.80;2.93;;;;;;;7.98;84.00;101500.22;5072938;28;20040;-77
2024/01/27 08:04:33;;;;;;;11.13;2.97;;;;;;;7.97;84.01;101506.31;5072324;28;20037;-81
2024/01/27 08:06:59;;;;;;;10.67;3.40;;;;;;;7.96;84.00;101503.66;5073090;28;20059;-80
2024/01/27 08:09:25;;;;;;;10.55;3.30;;;;;;;7.98;83.84;101509.84;5054796;28;20511;-83
2024/01/27 08:11:52;;;;;;;8.57;2.63;;;;;;;8.00;83.83;101513.38;5067814;28;20563;-81
2024/01/27 08:14:18;;;;;;;7.25;2.90;;;;;;;8.03;84.00;101508.22;5052671;28;20021;-80
2024/01/27 08:16:44;;;;;;;10.48;3.00;;;;;;;8.05;83.69;101512.63;5060454;28;20512;-77
2024/01/27 08:19:09;;;;;;;10.77;3.23;;;;;;;8.04;83.44;101516.13;5072644;28;20028;-82
2024/01/27 08:21:34;;;;;;;22.65;2.92;;;;;;;8.04;83.83;101516.13;5080045;28;20111;-88
2024/01/27 08:24:00;;;;;;;10.77;2.90;;;;;;;8.01;83.47;101510.78;5072434;28;20036;-80
2024/01/27 08:26:25;;;;;;;19.87;3.20;;;;;;;8.01;83.87;101510.78;5080409;28;20021;-84
2024/01/27 08:28:51;;;;;;;15.00;3.50;;;;;;;8.01;83.39;101516.03;5072331;28;20053;-77
2024/01/27 08:31:16;;;;;;;22.97;3.30;;;;;;;8.00;83.44;101510.75;5055625;28;20836;-80
2024/01/27 08:33:42;;;;;;;9.83;2.63;;;;;;;7.98;83.86;101518.56;5054293;28;20111;-78
2024/01/27 08:36:07;;;;;;;9.20;3.10;;;;;;;7.99;83.67;101525.59;5054501;28;20090;-78
2024/01/27 08:38:32;;;;;;;10.70;2.87;;;;;;;8.02;83.86;101517.81;5072340;28;20436;-85
2024/01/27 08:40:58;;;;;;;7.97;2.83;;;;;;;8.02;83.57;101517.81;5053415;28;20528;-78
2024/01/27 08:43:23;;;;;;;12.03;3.43;;;;;;;8.07;83.53;101524.91;5072877;28;20352;-81
2024/01/27 08:45:48;;;;;;;9.67;3.80;;;;;;;8.11;83.62;101519.78;5076551;28;20024;-76
2024/01/27 08:48:15;;;;;;;20.27;2.97;;;;;;;8.14;83.22;101529.50;5082623;28;20500;-78
2024/01/27 08:50:40;;;;;;;6.85;2.60;;;;;;;8.15;83.24;101523.41;5081066;28;20021;-77
2024/01/27 08:53:06;;;;;;;14.07;2.50;;;;;;;8.14;82.90;101526.88;5080831;28;20028;-83
2024/01/27 08:55:31;;;;;;;21.50;2.90;;;;;;;8.11;82.72;101526.78;5075484;28;20025;-77
2024/01/27 08:57:57;;;;;;;12.90;2.22;;;;;;;8.07;83.09;101517.94;5073985;28;20078;-79
2024/01/27 09:00:22;;;;;;;14.93;2.40;;;;;;;8.05;82.76;101523.13;5071816;28;20076;-78
2024/01/27 09:02:48;;;;;;;7.40;2.28;;;;;;;8.07;83.21;101522.28;5071613;28;20028;-82
2024/01/27 09:05:13;;;;;;;7.37;2.40;;;;;;;8.10;82.91;101514.53;5066761;28;20115;-79
2024/01/27 09:07:39;;;;;;;7.73;2.57;;;;;;;8.13;83.07;101511.97;5057266;28;20625;-82
2024/01/27 09:10:05;;;;;;;22.60;2.97;;;;;;;8.11;82.54;101511.06;5070980;28;20579;-83
2024/01/27 09:12:30;;;;;;;16.38;2.67;;;;;;;8.03;82.34;101513.47;5060709;28;20025;-79
2024/01/27 09:14:56;;;;;;;7.37;2.57;;;;;;;7.97;82.83;101514.19;5069626;28;20269;-79
2024/01/27 09:17:21;;;;;;;6.75;2.40;;;;;;;8.00;83.19;101510.75;5071138;28;20062;-76
2024/01/27 09:19:47;;;;;;;15.93;3.00;;;;;;;8.04;83.33;101515.25;5071087;28;20520;-81
2024/01/27 09:22:12;;;;;;;10.45;2.80;;;;;;;8.08;82.74;101510.94;5075894;28;20032;-80
2024/01/27 09:24:37;;;;;;;10.30;2.80;;;;;;;8.06;82.90;101508.31;5074067;28;20028;-84
2024/01/27 09:27:06;;;;;;;11.53;3.83;;;;;;;8.09;83.00;101512.75;5068110;28;20042;-87
2024/01/27 09:29:31;;;;;;;8.70;2.90;;;;;;;8.16;83.10;101509.44;5068532;28;20032;-79
2024/01/27 09:31:57;;;;;;;10.83;2.70;;;;;;;8.21;82.48;101513.06;5071237;28;20424;-86
2024/01/27 09:34:22;;;;;;;15.97;7.07;;;;;;;8.20;82.62;101519.16;5067863;28;20507;-86
2024/01/27 09:36:47;;;;;;;15.63;4.53;;;;;;;8.18;82.43;101516.47;5070659;28;20103;-83
2024/01/27 09:39:13;;;;;;;15.33;3.43;;;;;;;8.16;82.54;101514.69;5066193;28;20025;-83
2024/01/27 09:41:39;;;;;;;12.63;3.60;;;;;;;8.15;82.36;101518.16;5069039;28;20024;-79
2024/01/27 09:44:04;;;;;;;15.52;4.47;;;;;;;8.19;82.56;101514.75;5070997;28;20485;-83
2024/01/27 09:46:32;;;;;;;15.77;3.20;;;;;;;8.22;82.62;101520.06;5070938;28;20024;-83
2024/01/27 09:48:58;;;;;;;22.92;4.32;;;;;;;8.24;82.62;101515.75;5070619;28;20042;-76
2024/01/27 09:51:25;;;;;;;16.17;3.67;;;;;;;8.25;82.35;101509.66;5069547;28;20035;-80
2024/01/27 09:53:51;;;;;;;13.77;2.88;;;;;;;8.26;82.56;101511.44;5052254;28;20381;-79
2024/01/27 09:56:21;;;;;;;8.87;2.93;;;;;;;8.28;82.27;101514.97;5070093;28;20085;-78
2024/01/27 09:58:46;;;;;;;15.02;3.42;;;;;;;8.32;82.50;101511.59;5070382;28;20017;-77
2024/01/27 10:01:12;;;;;;;10.02;3.15;;;;;;;8.38;82.58;101516.09;5070965;28;20036;-86
2024/01/27 10:03:43;;;;;;;9.17;3.60;;;;;;;8.44;82.42;101510.13;5068544;28;20040;-79
2024/01/27 10:06:09;;;;;;;9.27;3.10;;;;;;;8.54;82.51;101509.53;5070514;28;20044;-78
2024/01/27 10:08:35;;;;;;;15.35;3.85;;;;;;;8.60;82.17;101511.41;5070120;28;20125;-77
2024/01/27 10:11:07;;;;;;;9.20;3.67;;;;;;;8.66;82.18;101510.69;5069771;28;20454;-84
2024/01/27 10:13:33;;;;;;;7.35;3.28;;;;;;;8.69;81.96;101506.41;5070839;28;20056;-79
2024/01/27 10:16:02;;;;;;;12.70;3.50;;;;;;;8.69;82.07;101505.50;5068812;28;20129;-79
2024/01/27 10:18:27;;;;;;;18.77;3.90;;;;;;;8.66;81.74;101500.19;5051399;28;20393;-82
2024/01/27 10:20:52;;;;;;;8.03;3.17;;;;;;;8.62;82.14;101507.09;5074997;28;20031;-77
2024/01/27 10:23:18;;;;;;;9.30;3.63;;;;;;;8.65;82.17;101495.78;5068980;28;20029;-79
2024/01/27 10:25:43;;;;;;;13.07;3.10;;;;;;;8.69;82.10;101495.91;5065598;28;20024;-76
2024/01/27 10:28:09;;;;;;;14.00;5.13;;;;;;;8.74;81.83;101498.63;5058454;28;20027;-75
2024/01/27 10:30:35;;;;;;;13.15;4.32;;;;;;;8.73;81.77;101496.84;5064333;28;20028;-78
2024/01/27 10:33:01;;;;;;;8.88;3.45;;;;;;;8.75;82.13;101497.75;5068869;28;20024;-84
2024/01/27 10:35:26;;;;;;;10.80;4.40;;;;;;;8.81;81.85;101505.81;5060533;28;20468;-81
2024/01/27 10:37:53;;;;;;;12.23;4.30;;;;;;;8.86;81.60;101505.88;5067512;28;20029;-83
2024/01/27 10:40:18;;;;;;;8.80;3.67;;;;;;;8.90;81.75;101506.00;5067617;28;20029;-85
2024/01/27 10:42:45;;;;;;;10.65;3.50;;;;;;;8.88;81.78;101498.94;5069200;28;20055;-75
2024/01/27 10:45:12;;;;;;;13.55;3.80;;;;;;;8.86;82.02;101501.53;5069998;28;20032;-88
2024/01/27 10:47:38;;;;;;;10.88;3.58;;;;;;;8.83;81.79;101498.84;5070317;28;20028;-87
2024/01/27 10:50:09;;;;;;;11.07;4.07;;;;;;;8.78;82.21;101497.81;5070657;28;20396;-89
2024/01/27 10:52:41;;;;;;;18.27;3.72;;;;;;;8.78;82.09;101494.34;5070459;28;20031;-83
2024/01/27 10:55:09;;;;;;;8.93;3.97;;;;;;;8.80;82.31;101493.53;5067996;28;20562;-76
2024/01/27 10:57:36;;;;;;;15.93;4.35;;;;;;;8.88;82.17;101491.06;5069979;28;20064;-87
2024/01/27 11:00:06;;;;;;;9.90;4.22;;;;;;;8.94;82.11;101485.06;5070148;28;20040;-90
2024/01/27 11:02:33;;;;;;;19.70;4.10;;;;;;;8.97;81.90;101490.38;5064360;28;20024;-73
2024/01/27 11:05:00;;;;;;;14.85;4.50;;;;;;;9.00;81.66;101478.19;5064153;28;20024;-75
2024/01/27 11:07:26;;;;;;;9.00;3.95;;;;;;;9.07;81.92;101475.69;5070791;28;20032;-76
2024/01/27 11:09:52;;;;;;;13.00;4.60;;;;;;;9.12;81.87;101476.69;5074344;28;20124;-75
2024/01/27 11:12:19;;;;;;;11.53;4.87;;;;;;;9.16;81.49;101471.53;5067384;28;20115;-88
2024/01/27 11:14:46;;;;;;;10.65;4.68;;;;;;;9.13;81.39;101462.69;5068730;28;20028;-84